sensor_id;sensor_type;location;lat;lon;timestamp;P1;durP1;ratioP1;P2;durP2;ratioP2
48423;SDS011;34232;42.502;26.014;2024-03-06T00:02:18;17.70;;;10.73;;
48423;SDS011;34232;42.502;26.014;2024-03-06T00:04:43;17.03;;;10.97;;
48423;SDS011;34232;42.502;26.014;2024-03-06T00:07:09;15.13;;;9.83;;
48423;SDS011;34232;42.502;26.014;2024-03-06T00:09:35;19.93;;;9.90;;
48423;SDS011;34232;42.502;26.014;2024-03-06T00:12:01;13.35;;;9.25;;
48423;SDS011;34232;42.502;26.014;2024-03-06T00:14:27;12.40;;;9.13;;
48423;SDS011;34232;42.502;26.014;2024-03-06T00:16:53;14.83;;;9.97;;
48423;SDS011;34232;42.502;26.014;2024-03-06T00:19:20;21.60;;;10.77;;
48423;SDS011;34232;42.502;26.014;2024-03-06T00:21:47;21.42;;;10.55;;
48423;SDS011;34232;42.502;26.014;2024-03-06T00:24:13;19.10;;;11.60;;
48423;SDS011;34232;42.502;26.014;2024-03-06T00:26:40;15.55;;;9.80;;
48423;SDS011;34232;42.502;26.014;2024-03-06T00:29:06;16.98;;;11.05;;
48423;SDS011;34232;42.502;26.014;2024-03-06T00:31:31;18.50;;;10.40;;
48423;SDS011;34232;42.502;26.014;2024-03-06T00:33:57;17.03;;;10.20;;
48423;SDS011;34232;42.502;26.014;2024-03-06T00:36:22;17.93;;;10.23;;
48423;SDS011;34232;42.502;26.014;2024-03-06T00:38:48;16.77;;;10.37;;
48423;SDS011;34232;42.502;26.014;2024-03-06T00:41:13;17.80;;;10.03;;
48423;SDS011;34232;42.502;26.014;2024-03-06T00:43:39;15.63;;;10.23;;
48423;SDS011;34232;42.502;26.014;2024-03-06T00:46:04;20.17;;;11.00;;
48423;SDS011;34232;42.502;26.014;2024-03-06T00:48:30;17.57;;;10.53;;
48423;SDS011;34232;42.502;26.014;2024-03-06T00:50:55;21.47;;;10.70;;
48423;SDS011;34232;42.502;26.014;2024-03-06T00:53:21;17.63;;;9.33;;
48423;SDS011;34232;42.502;26.014;2024-03-06T00:55:47;17.67;;;9.77;;
48423;SDS011;34232;42.502;26.014;2024-03-06T00:58:12;19.80;;;10.37;;
48423;SDS011;34232;42.502;26.014;2024-03-06T01:00:38;16.73;;;11.57;;
48423;SDS011;34232;42.502;26.014;2024-03-06T01:03:04;15.98;;;10.25;;
48423;SDS011;34232;42.502;26.014;2024-03-06T01:05:30;19.77;;;11.73;;
48423;SDS011;34232;42.502;26.014;2024-03-06T01:07:55;13.67;;;9.57;;
48423;SDS011;34232;42.502;26.014;2024-03-06T01:10:22;16.38;;;11.30;;
48423;SDS011;34232;42.502;26.014;2024-03-06T01:12:47;20.60;;;11.07;;
48423;SDS011;34232;42.502;26.014;2024-03-06T01:15:13;20.60;;;10.50;;
48423;SDS011;34232;42.502;26.014;2024-03-06T01:17:39;17.93;;;12.30;;
48423;SDS011;34232;42.502;26.014;2024-03-06T01:20:05;20.00;;;10.10;;
48423;SDS011;34232;42.502;26.014;2024-03-06T01:22:34;16.45;;;10.93;;
48423;SDS011;34232;42.502;26.014;2024-03-06T01:25:00;17.20;;;9.63;;
48423;SDS011;34232;42.502;26.014;2024-03-06T01:27:26;16.77;;;10.40;;
48423;SDS011;34232;42.502;26.014;2024-03-06T01:29:52;19.27;;;10.23;;
48423;SDS011;34232;42.502;26.014;2024-03-06T01:32:17;22.23;;;10.13;;
48423;SDS011;34232;42.502;26.014;2024-03-06T01:34:42;16.97;;;9.60;;
48423;SDS011;34232;42.502;26.014;2024-03-06T01:37:08;18.77;;;11.60;;
48423;SDS011;34232;42.502;26.014;2024-03-06T01:39:33;17.57;;;9.83;;
48423;SDS011;34232;42.502;26.014;2024-03-06T01:42:00;16.27;;;9.48;;
48423;SDS011;34232;42.502;26.014;2024-03-06T01:44:26;18.67;;;9.70;;
48423;SDS011;34232;42.502;26.014;2024-03-06T01:46:51;13.90;;;8.77;;
48423;SDS011;34232;42.502;26.014;2024-03-06T01:49:18;12.80;;;8.43;;
48423;SDS011;34232;42.502;26.014;2024-03-06T01:51:45;14.90;;;8.80;;
48423;SDS011;34232;42.502;26.014;2024-03-06T01:54:14;13.45;;;8.95;;
48423;SDS011;34232;42.502;26.014;2024-03-06T01:56:44;15.93;;;10.25;;
48423;SDS011;34232;42.502;26.014;2024-03-06T01:59:11;14.90;;;9.07;;
48423;SDS011;34232;42.502;26.014;2024-03-06T02:01:38;17.60;;;10.38;;
48423;SDS011;34232;42.502;26.014;2024-03-06T02:04:05;16.65;;;9.82;;
48423;SDS011;34232;42.502;26.014;2024-03-06T02:06:34;14.23;;;8.68;;
48423;SDS011;34232;42.502;26.014;2024-03-06T02:09:00;17.80;;;10.02;;
48423;SDS011;34232;42.502;26.014;2024-03-06T02:11:28;15.95;;;9.00;;
48423;SDS011;34232;42.502;26.014;2024-03-06T02:13:54;16.23;;;9.95;;
48423;SDS011;34232;42.502;26.014;2024-03-06T02:16:20;17.37;;;9.83;;
48423;SDS011;34232;42.502;26.014;2024-03-06T02:18:54;18.23;;;9.77;;
48423;SDS011;34232;42.502;26.014;2024-03-06T02:21:22;15.65;;;8.65;;
48423;SDS011;34232;42.502;26.014;2024-03-06T02:23:48;18.23;;;9.93;;
48423;SDS011;34232;42.502;26.014;2024-03-06T02:26:16;15.45;;;8.55;;
48423;SDS011;34232;42.502;26.014;2024-03-06T02:28:48;18.17;;;10.00;;
48423;SDS011;34232;42.502;26.014;2024-03-06T02:31:17;16.73;;;9.45;;
48423;SDS011;34232;42.502;26.014;2024-03-06T02:33:44;20.48;;;12.73;;
48423;SDS011;34232;42.502;26.014;2024-03-06T02:36:10;35.43;;;20.57;;
48423;SDS011;34232;42.502;26.014;2024-03-06T02:38:36;24.83;;;13.45;;
48423;SDS011;34232;42.502;26.014;2024-03-06T02:41:02;23.67;;;11.40;;
48423;SDS011;34232;42.502;26.014;2024-03-06T02:43:28;21.47;;;12.23;;
48423;SDS011;34232;42.502;26.014;2024-03-06T02:45:53;18.57;;;11.70;;
48423;SDS011;34232;42.502;26.014;2024-03-06T02:48:18;26.17;;;17.20;;
48423;SDS011;34232;42.502;26.014;2024-03-06T02:50:44;34.63;;;19.20;;
48423;SDS011;34232;42.502;26.014;2024-03-06T02:53:10;18.53;;;11.93;;
48423;SDS011;34232;42.502;26.014;2024-03-06T02:55:35;22.50;;;12.43;;
48423;SDS011;34232;42.502;26.014;2024-03-06T02:58:01;17.50;;;11.00;;
48423;SDS011;34232;42.502;26.014;2024-03-06T03:00:27;32.25;;;18.27;;
48423;SDS011;34232;42.502;26.014;2024-03-06T03:02:53;117.47;;;74.87;;
48423;SDS011;34232;42.502;26.014;2024-03-06T03:05:18;150.10;;;95.77;;
48423;SDS011;34232;42.502;26.014;2024-03-06T03:07:44;174.27;;;111.23;;
48423;SDS011;34232;42.502;26.014;2024-03-06T03:10:09;114.43;;;77.53;;
48423;SDS011;34232;42.502;26.014;2024-03-06T03:12:35;72.75;;;50.55;;
48423;SDS011;34232;42.502;26.014;2024-03-06T03:15:03;35.08;;;21.00;;
48423;SDS011;34232;42.502;26.014;2024-03-06T03:17:29;19.73;;;12.18;;
48423;SDS011;34232;42.502;26.014;2024-03-06T03:19:54;18.80;;;11.07;;
48423;SDS011;34232;42.502;26.014;2024-03-06T03:22:20;15.00;;;9.53;;
48423;SDS011;34232;42.502;26.014;2024-03-06T03:24:46;18.08;;;11.20;;
48423;SDS011;34232;42.502;26.014;2024-03-06T03:27:12;19.65;;;10.88;;
48423;SDS011;34232;42.502;26.014;2024-03-06T03:29:38;20.90;;;13.03;;
48423;SDS011;34232;42.502;26.014;2024-03-06T03:32:04;19.08;;;12.02;;
48423;SDS011;34232;42.502;26.014;2024-03-06T03:34:30;19.25;;;10.60;;
48423;SDS011;34232;42.502;26.014;2024-03-06T03:36:55;14.97;;;8.70;;
48423;SDS011;34232;42.502;26.014;2024-03-06T03:39:21;21.23;;;10.93;;
48423;SDS011;34232;42.502;26.014;2024-03-06T03:41:49;16.48;;;9.90;;
48423;SDS011;34232;42.502;26.014;2024-03-06T03:44:16;24.55;;;9.88;;
48423;SDS011;34232;42.502;26.014;2024-03-06T03:46:42;24.98;;;13.40;;
48423;SDS011;34232;42.502;26.014;2024-03-06T03:49:08;23.73;;;11.03;;
48423;SDS011;34232;42.502;26.014;2024-03-06T03:51:35;27.20;;;12.02;;
48423;SDS011;34232;42.502;26.014;2024-03-06T03:54:01;22.60;;;13.48;;
48423;SDS011;34232;42.502;26.014;2024-03-06T03:56:27;24.05;;;15.30;;
48423;SDS011;34232;42.502;26.014;2024-03-06T03:58:52;23.90;;;15.75;;
48423;SDS011;34232;42.502;26.014;2024-03-06T04:01:18;29.37;;;16.87;;
48423;SDS011;34232;42.502;26.014;2024-03-06T04:03:43;27.65;;;16.33;;
48423;SDS011;34232;42.502;26.014;2024-03-06T04:06:10;26.77;;;17.70;;
48423;SDS011;34232;42.502;26.014;2024-03-06T04:08:35;29.38;;;17.63;;
48423;SDS011;34232;42.502;26.014;2024-03-06T04:11:02;27.38;;;17.90;;
48423;SDS011;34232;42.502;26.014;2024-03-06T04:13:34;33.85;;;20.90;;
48423;SDS011;34232;42.502;26.014;2024-03-06T04:16:01;36.30;;;19.77;;
48423;SDS011;34232;42.502;26.014;2024-03-06T04:18:27;33.65;;;19.83;;
48423;SDS011;34232;42.502;26.014;2024-03-06T04:20:54;27.17;;;16.92;;
48423;SDS011;34232;42.502;26.014;2024-03-06T04:23:19;24.23;;;13.80;;
48423;SDS011;34232;42.502;26.014;2024-03-06T04:25:45;24.70;;;13.13;;
48423;SDS011;34232;42.502;26.014;2024-03-06T04:28:10;21.48;;;10.68;;
48423;SDS011;34232;42.502;26.014;2024-03-06T04:30:35;26.33;;;11.53;;
48423;SDS011;34232;42.502;26.014;2024-03-06T04:33:01;15.60;;;11.03;;
48423;SDS011;34232;42.502;26.014;2024-03-06T04:35:26;17.83;;;8.90;;
48423;SDS011;34232;42.502;26.014;2024-03-06T04:37:52;17.23;;;10.00;;
48423;SDS011;34232;42.502;26.014;2024-03-06T04:40:17;18.27;;;8.37;;
48423;SDS011;34232;42.502;26.014;2024-03-06T04:42:48;17.38;;;8.60;;
48423;SDS011;34232;42.502;26.014;2024-03-06T04:45:14;20.85;;;10.27;;
48423;SDS011;34232;42.502;26.014;2024-03-06T04:47:41;14.02;;;7.47;;
48423;SDS011;34232;42.502;26.014;2024-03-06T04:50:10;18.10;;;8.60;;
48423;SDS011;34232;42.502;26.014;2024-03-06T04:52:39;18.52;;;9.38;;
48423;SDS011;34232;42.502;26.014;2024-03-06T04:55:05;14.48;;;9.75;;
48423;SDS011;34232;42.502;26.014;2024-03-06T04:57:32;16.40;;;8.23;;
48423;SDS011;34232;42.502;26.014;2024-03-06T04:59:58;20.30;;;8.57;;
48423;SDS011;34232;42.502;26.014;2024-03-06T05:02:23;15.88;;;9.38;;
48423;SDS011;34232;42.502;26.014;2024-03-06T05:04:51;15.98;;;8.57;;
48423;SDS011;34232;42.502;26.014;2024-03-06T05:07:16;15.13;;;8.13;;
48423;SDS011;34232;42.502;26.014;2024-03-06T05:09:42;17.70;;;9.57;;
48423;SDS011;34232;42.502;26.014;2024-03-06T05:12:07;24.73;;;11.77;;
48423;SDS011;34232;42.502;26.014;2024-03-06T05:14:33;29.43;;;18.00;;
48423;SDS011;34232;42.502;26.014;2024-03-06T05:16:58;31.90;;;18.03;;
48423;SDS011;34232;42.502;26.014;2024-03-06T05:19:24;34.97;;;19.73;;
48423;SDS011;34232;42.502;26.014;2024-03-06T05:21:57;35.13;;;22.50;;
48423;SDS011;34232;42.502;26.014;2024-03-06T05:24:23;44.97;;;23.90;;
48423;SDS011;34232;42.502;26.014;2024-03-06T05:26:49;37.73;;;23.77;;
48423;SDS011;34232;42.502;26.014;2024-03-06T05:29:14;47.65;;;27.65;;
48423;SDS011;34232;42.502;26.014;2024-03-06T05:31:40;32.40;;;18.43;;
48423;SDS011;34232;42.502;26.014;2024-03-06T05:34:06;19.37;;;11.70;;
48423;SDS011;34232;42.502;26.014;2024-03-06T05:36:31;18.58;;;10.25;;
48423;SDS011;34232;42.502;26.014;2024-03-06T05:38:57;18.45;;;11.98;;
48423;SDS011;34232;42.502;26.014;2024-03-06T05:41:22;23.52;;;13.48;;
48423;SDS011;34232;42.502;26.014;2024-03-06T05:43:47;24.57;;;14.73;;
48423;SDS011;34232;42.502;26.014;2024-03-06T05:46:13;22.03;;;13.17;;
48423;SDS011;34232;42.502;26.014;2024-03-06T05:48:40;27.33;;;14.55;;
48423;SDS011;34232;42.502;26.014;2024-03-06T05:51:06;48.47;;;22.03;;
48423;SDS011;34232;42.502;26.014;2024-03-06T05:53:35;37.67;;;20.23;;
48423;SDS011;34232;42.502;26.014;2024-03-06T05:56:06;27.00;;;17.83;;
48423;SDS011;34232;42.502;26.014;2024-03-06T05:58:31;27.90;;;18.10;;
48423;SDS011;34232;42.502;26.014;2024-03-06T06:00:57;29.70;;;17.17;;
48423;SDS011;34232;42.502;26.014;2024-03-06T06:03:23;36.93;;;23.17;;
48423;SDS011;34232;42.502;26.014;2024-03-06T06:05:48;35.70;;;21.30;;
48423;SDS011;34232;42.502;26.014;2024-03-06T06:08:14;37.53;;;24.67;;
48423;SDS011;34232;42.502;26.014;2024-03-06T06:10:39;34.40;;;21.58;;
48423;SDS011;34232;42.502;26.014;2024-03-06T06:13:04;31.53;;;18.60;;
48423;SDS011;34232;42.502;26.014;2024-03-06T06:15:30;28.97;;;17.87;;
48423;SDS011;34232;42.502;26.014;2024-03-06T06:17:55;30.90;;;19.33;;
48423;SDS011;34232;42.502;26.014;2024-03-06T06:20:21;36.53;;;22.17;;
48423;SDS011;34232;42.502;26.014;2024-03-06T06:22:46;37.17;;;22.87;;
48423;SDS011;34232;42.502;26.014;2024-03-06T06:25:12;34.10;;;22.23;;
48423;SDS011;34232;42.502;26.014;2024-03-06T06:27:38;87.80;;;51.57;;
48423;SDS011;34232;42.502;26.014;2024-03-06T06:30:04;40.83;;;27.53;;
48423;SDS011;34232;42.502;26.014;2024-03-06T06:32:30;40.47;;;24.27;;
48423;SDS011;34232;42.502;26.014;2024-03-06T06:34:55;84.47;;;57.60;;
48423;SDS011;34232;42.502;26.014;2024-03-06T06:37:21;41.50;;;29.20;;
48423;SDS011;34232;42.502;26.014;2024-03-06T06:39:47;40.00;;;25.10;;
48423;SDS011;34232;42.502;26.014;2024-03-06T06:42:13;42.78;;;26.55;;
48423;SDS011;34232;42.502;26.014;2024-03-06T06:44:39;54.77;;;28.53;;
48423;SDS011;34232;42.502;26.014;2024-03-06T06:47:04;58.20;;;28.47;;
48423;SDS011;34232;42.502;26.014;2024-03-06T06:49:29;52.43;;;28.30;;
48423;SDS011;34232;42.502;26.014;2024-03-06T06:51:55;45.40;;;28.73;;
48423;SDS011;34232;42.502;26.014;2024-03-06T06:54:20;46.43;;;28.50;;
48423;SDS011;34232;42.502;26.014;2024-03-06T06:56:46;44.50;;;24.80;;
48423;SDS011;34232;42.502;26.014;2024-03-06T06:59:12;43.13;;;25.17;;
48423;SDS011;34232;42.502;26.014;2024-03-06T07:01:38;33.28;;;21.42;;
48423;SDS011;34232;42.502;26.014;2024-03-06T07:04:05;30.40;;;19.30;;
48423;SDS011;34232;42.502;26.014;2024-03-06T07:06:31;29.83;;;16.90;;
48423;SDS011;34232;42.502;26.014;2024-03-06T07:08:56;30.20;;;17.73;;
48423;SDS011;34232;42.502;26.014;2024-03-06T07:11:22;31.57;;;19.67;;
48423;SDS011;34232;42.502;26.014;2024-03-06T07:13:48;26.17;;;16.30;;
48423;SDS011;34232;42.502;26.014;2024-03-06T07:16:13;28.13;;;17.13;;
48423;SDS011;34232;42.502;26.014;2024-03-06T07:18:39;24.07;;;14.67;;
48423;SDS011;34232;42.502;26.014;2024-03-06T07:21:05;25.03;;;15.70;;
48423;SDS011;34232;42.502;26.014;2024-03-06T07:23:30;28.47;;;16.33;;
48423;SDS011;34232;42.502;26.014;2024-03-06T07:25:56;30.87;;;17.30;;
48423;SDS011;34232;42.502;26.014;2024-03-06T07:28:22;27.73;;;16.95;;
48423;SDS011;34232;42.502;26.014;2024-03-06T07:30:48;30.90;;;16.30;;
48423;SDS011;34232;42.502;26.014;2024-03-06T07:33:13;30.97;;;19.77;;
48423;SDS011;34232;42.502;26.014;2024-03-06T07:35:39;32.07;;;18.70;;
48423;SDS011;34232;42.502;26.014;2024-03-06T07:38:04;29.33;;;19.00;;
48423;SDS011;34232;42.502;26.014;2024-03-06T07:40:30;30.60;;;15.97;;
48423;SDS011;34232;42.502;26.014;2024-03-06T07:42:57;27.75;;;14.20;;
48423;SDS011;34232;42.502;26.014;2024-03-06T07:45:24;21.45;;;13.48;;
48423;SDS011;34232;42.502;26.014;2024-03-06T07:47:50;26.90;;;13.97;;
48423;SDS011;34232;42.502;26.014;2024-03-06T07:50:15;26.23;;;14.33;;
48423;SDS011;34232;42.502;26.014;2024-03-06T07:52:47;26.73;;;13.07;;
48423;SDS011;34232;42.502;26.014;2024-03-06T07:55:12;21.05;;;13.20;;
48423;SDS011;34232;42.502;26.014;2024-03-06T07:57:38;24.20;;;14.67;;
48423;SDS011;34232;42.502;26.014;2024-03-06T08:00:04;21.13;;;14.10;;
48423;SDS011;34232;42.502;26.014;2024-03-06T08:02:39;24.20;;;14.00;;
48423;SDS011;34232;42.502;26.014;2024-03-06T08:05:08;24.92;;;13.45;;
48423;SDS011;34232;42.502;26.014;2024-03-06T08:07:37;19.85;;;12.18;;
48423;SDS011;34232;42.502;26.014;2024-03-06T08:10:03;18.20;;;10.95;;
48423;SDS011;34232;42.502;26.014;2024-03-06T08:12:30;17.88;;;11.35;;
48423;SDS011;34232;42.502;26.014;2024-03-06T08:14:56;18.83;;;11.90;;
48423;SDS011;34232;42.502;26.014;2024-03-06T08:17:21;19.07;;;11.73;;
48423;SDS011;34232;42.502;26.014;2024-03-06T08:19:47;20.67;;;10.60;;
48423;SDS011;34232;42.502;26.014;2024-03-06T08:22:12;19.97;;;10.97;;
48423;SDS011;34232;42.502;26.014;2024-03-06T08:24:38;23.07;;;12.73;;
48423;SDS011;34232;42.502;26.014;2024-03-06T08:27:03;23.90;;;13.37;;
48423;SDS011;34232;42.502;26.014;2024-03-06T08:29:29;14.67;;;9.17;;
48423;SDS011;34232;42.502;26.014;2024-03-06T08:31:54;17.33;;;10.17;;
48423;SDS011;34232;42.502;26.014;2024-03-06T08:34:23;17.20;;;10.20;;
48423;SDS011;34232;42.502;26.014;2024-03-06T08:36:49;16.63;;;9.43;;
48423;SDS011;34232;42.502;26.014;2024-03-06T08:39:14;17.23;;;11.40;;
48423;SDS011;34232;42.502;26.014;2024-03-06T08:41:41;24.92;;;15.98;;
48423;SDS011;34232;42.502;26.014;2024-03-06T08:44:07;26.00;;;15.13;;
48423;SDS011;34232;42.502;26.014;2024-03-06T08:46:32;24.47;;;13.97;;
48423;SDS011;34232;42.502;26.014;2024-03-06T08:48:58;21.37;;;13.00;;
48423;SDS011;34232;42.502;26.014;2024-03-06T08:51:24;20.23;;;11.67;;
48423;SDS011;34232;42.502;26.014;2024-03-06T08:53:50;19.42;;;11.88;;
48423;SDS011;34232;42.502;26.014;2024-03-06T08:56:16;25.50;;;12.33;;
48423;SDS011;34232;42.502;26.014;2024-03-06T08:58:41;21.33;;;11.57;;
48423;SDS011;34232;42.502;26.014;2024-03-06T09:01:07;20.40;;;12.13;;
48423;SDS011;34232;42.502;26.014;2024-03-06T09:03:32;19.73;;;12.07;;
48423;SDS011;34232;42.502;26.014;2024-03-06T09:05:58;18.40;;;13.20;;
48423;SDS011;34232;42.502;26.014;2024-03-06T09:08:24;20.10;;;11.88;;
48423;SDS011;34232;42.502;26.014;2024-03-06T09:10:50;18.23;;;12.27;;
48423;SDS011;34232;42.502;26.014;2024-03-06T09:13:15;22.63;;;12.60;;
48423;SDS011;34232;42.502;26.014;2024-03-06T09:15:41;14.00;;;9.53;;
48423;SDS011;34232;42.502;26.014;2024-03-06T09:18:06;13.60;;;10.30;;
48423;SDS011;34232;42.502;26.014;2024-03-06T09:20:32;34.30;;;23.50;;
48423;SDS011;34232;42.502;26.014;2024-03-06T09:22:57;15.87;;;10.50;;
48423;SDS011;34232;42.502;26.014;2024-03-06T09:25:24;13.75;;;8.10;;
48423;SDS011;34232;42.502;26.014;2024-03-06T09:27:49;11.13;;;8.43;;
48423;SDS011;34232;42.502;26.014;2024-03-06T09:30:15;11.57;;;8.13;;
48423;SDS011;34232;42.502;26.014;2024-03-06T09:32:40;12.77;;;8.33;;
48423;SDS011;34232;42.502;26.014;2024-03-06T09:35:07;14.70;;;8.20;;
48423;SDS011;34232;42.502;26.014;2024-03-06T09:37:33;15.27;;;7.90;;
48423;SDS011;34232;42.502;26.014;2024-03-06T09:39:58;12.13;;;7.87;;
48423;SDS011;34232;42.502;26.014;2024-03-06T09:42:24;13.27;;;8.87;;
48423;SDS011;34232;42.502;26.014;2024-03-06T09:44:50;17.50;;;9.63;;
48423;SDS011;34232;42.502;26.014;2024-03-06T09:47:16;11.43;;;7.90;;
48423;SDS011;34232;42.502;26.014;2024-03-06T09:49:50;15.27;;;9.18;;
48423;SDS011;34232;42.502;26.014;2024-03-06T09:52:18;12.75;;;8.85;;
48423;SDS011;34232;42.502;26.014;2024-03-06T09:54:44;12.33;;;8.97;;
48423;SDS011;34232;42.502;26.014;2024-03-06T09:57:09;13.97;;;8.53;;
48423;SDS011;34232;42.502;26.014;2024-03-06T09:59:35;12.57;;;7.90;;
48423;SDS011;34232;42.502;26.014;2024-03-06T10:02:00;12.97;;;9.07;;
48423;SDS011;34232;42.502;26.014;2024-03-06T10:04:32;16.05;;;10.68;;
48423;SDS011;34232;42.502;26.014;2024-03-06T10:06:59;16.40;;;10.95;;
48423;SDS011;34232;42.502;26.014;2024-03-06T10:09:25;15.43;;;10.00;;
48423;SDS011;34232;42.502;26.014;2024-03-06T10:11:52;15.23;;;9.57;;
48423;SDS011;34232;42.502;26.014;2024-03-06T10:14:24;19.15;;;9.77;;
48423;SDS011;34232;42.502;26.014;2024-03-06T10:16:53;17.93;;;9.00;;
48423;SDS011;34232;42.502;26.014;2024-03-06T10:19:21;13.02;;;7.90;;
48423;SDS011;34232;42.502;26.014;2024-03-06T10:21:48;9.57;;;6.88;;
48423;SDS011;34232;42.502;26.014;2024-03-06T10:24:23;13.98;;;7.68;;
48423;SDS011;34232;42.502;26.014;2024-03-06T10:26:55;11.52;;;7.05;;
48423;SDS011;34232;42.502;26.014;2024-03-06T10:29:23;10.95;;;7.22;;
48423;SDS011;34232;42.502;26.014;2024-03-06T10:34:19;12.43;;;7.07;;
48423;SDS011;34232;42.502;26.014;2024-03-06T10:36:47;9.80;;;7.22;;
48423;SDS011;34232;42.502;26.014;2024-03-06T10:39:18;11.48;;;7.45;;
48423;SDS011;34232;42.502;26.014;2024-03-06T10:41:45;11.10;;;6.97;;
48423;SDS011;34232;42.502;26.014;2024-03-06T10:44:12;12.45;;;7.22;;
48423;SDS011;34232;42.502;26.014;2024-03-06T10:46:42;11.77;;;6.80;;
48423;SDS011;34232;42.502;26.014;2024-03-06T10:49:09;14.68;;;6.60;;
48423;SDS011;34232;42.502;26.014;2024-03-06T10:54:03;11.00;;;7.78;;
48423;SDS011;34232;42.502;26.014;2024-03-06T10:56:29;11.10;;;6.53;;
48423;SDS011;34232;42.502;26.014;2024-03-06T10:58:55;12.87;;;6.50;;
48423;SDS011;34232;42.502;26.014;2024-03-06T11:01:23;11.80;;;6.45;;
48423;SDS011;34232;42.502;26.014;2024-03-06T11:03:49;10.18;;;6.78;;
48423;SDS011;34232;42.502;26.014;2024-03-06T11:06:15;11.35;;;6.68;;
48423;SDS011;34232;42.502;26.014;2024-03-06T11:08:41;8.93;;;6.53;;
48423;SDS011;34232;42.502;26.014;2024-03-06T11:11:19;9.27;;;6.23;;
48423;SDS011;34232;42.502;26.014;2024-03-06T11:13:46;8.65;;;6.00;;
48423;SDS011;34232;42.502;26.014;2024-03-06T11:16:12;8.95;;;6.10;;
48423;SDS011;34232;42.502;26.014;2024-03-06T11:23:29;9.63;;;6.53;;
48423;SDS011;34232;42.502;26.014;2024-03-06T11:26:03;7.03;;;5.45;;
48423;SDS011;34232;42.502;26.014;2024-03-06T11:31:03;9.38;;;4.75;;
48423;SDS011;34232;42.502;26.014;2024-03-06T11:33:40;8.07;;;4.95;;
48423;SDS011;34232;42.502;26.014;2024-03-06T11:39:02;10.82;;;5.80;;
48423;SDS011;34232;42.502;26.014;2024-03-06T11:41:29;7.85;;;5.53;;
48423;SDS011;34232;42.502;26.014;2024-03-06T11:43:57;8.75;;;5.43;;
48423;SDS011;34232;42.502;26.014;2024-03-06T11:46:44;9.27;;;5.38;;
48423;SDS011;34232;42.502;26.014;2024-03-06T11:49:23;7.10;;;4.90;;
48423;SDS011;34232;42.502;26.014;2024-03-06T11:51:53;7.72;;;4.75;;
48423;SDS011;34232;42.502;26.014;2024-03-06T11:54:30;7.22;;;5.15;;
48423;SDS011;34232;42.502;26.014;2024-03-06T11:56:57;10.38;;;5.65;;
48423;SDS011;34232;42.502;26.014;2024-03-06T11:59:24;6.00;;;4.70;;
48423;SDS011;34232;42.502;26.014;2024-03-06T12:01:53;7.30;;;4.82;;
48423;SDS011;34232;42.502;26.014;2024-03-06T12:04:21;7.20;;;4.93;;
48423;SDS011;34232;42.502;26.014;2024-03-06T12:06:47;9.57;;;5.72;;
48423;SDS011;34232;42.502;26.014;2024-03-06T12:09:13;6.00;;;4.85;;
48423;SDS011;34232;42.502;26.014;2024-03-06T12:11:40;7.72;;;5.10;;
48423;SDS011;34232;42.502;26.014;2024-03-06T12:14:08;6.95;;;4.72;;
48423;SDS011;34232;42.502;26.014;2024-03-06T12:16:39;8.88;;;4.80;;
48423;SDS011;34232;42.502;26.014;2024-03-06T12:19:05;8.27;;;4.90;;
48423;SDS011;34232;42.502;26.014;2024-03-06T12:21:31;7.73;;;5.10;;
48423;SDS011;34232;42.502;26.014;2024-03-06T12:26:29;11.93;;;6.43;;
48423;SDS011;34232;42.502;26.014;2024-03-06T12:29:05;10.23;;;6.22;;
48423;SDS011;34232;42.502;26.014;2024-03-06T12:31:35;8.80;;;5.95;;
48423;SDS011;34232;42.502;26.014;2024-03-06T12:34:02;10.80;;;6.13;;
48423;SDS011;34232;42.502;26.014;2024-03-06T12:36:31;8.93;;;6.75;;
48423;SDS011;34232;42.502;26.014;2024-03-06T12:39:04;11.40;;;6.43;;
48423;SDS011;34232;42.502;26.014;2024-03-06T12:41:38;6.65;;;5.63;;
48423;SDS011;34232;42.502;26.014;2024-03-06T12:44:06;12.15;;;6.47;;
48423;SDS011;34232;42.502;26.014;2024-03-06T12:46:34;9.35;;;6.05;;
48423;SDS011;34232;42.502;26.014;2024-03-06T12:48:59;8.97;;;6.70;;
48423;SDS011;34232;42.502;26.014;2024-03-06T12:51:25;13.23;;;7.20;;
48423;SDS011;34232;42.502;26.014;2024-03-06T12:53:50;14.17;;;7.93;;
48423;SDS011;34232;42.502;26.014;2024-03-06T12:56:16;34.43;;;8.93;;
48423;SDS011;34232;42.502;26.014;2024-03-06T12:58:42;12.63;;;7.57;;
48423;SDS011;34232;42.502;26.014;2024-03-06T13:01:08;13.33;;;8.00;;
48423;SDS011;34232;42.502;26.014;2024-03-06T13:03:33;9.17;;;7.63;;
48423;SDS011;34232;42.502;26.014;2024-03-06T13:05:59;12.50;;;8.93;;
48423;SDS011;34232;42.502;26.014;2024-03-06T13:08:25;11.88;;;7.55;;
48423;SDS011;34232;42.502;26.014;2024-03-06T13:10:51;8.90;;;7.60;;
48423;SDS011;34232;42.502;26.014;2024-03-06T13:13:16;11.00;;;7.13;;
48423;SDS011;34232;42.502;26.014;2024-03-06T13:15:41;7.77;;;5.93;;
48423;SDS011;34232;42.502;26.014;2024-03-06T13:18:08;11.73;;;6.72;;
48423;SDS011;34232;42.502;26.014;2024-03-06T13:20:33;12.03;;;6.40;;
48423;SDS011;34232;42.502;26.014;2024-03-06T13:22:59;10.87;;;6.50;;
48423;SDS011;34232;42.502;26.014;2024-03-06T13:25:25;7.43;;;5.68;;
48423;SDS011;34232;42.502;26.014;2024-03-06T13:27:51;10.67;;;6.83;;
48423;SDS011;34232;42.502;26.014;2024-03-06T13:30:20;6.80;;;5.50;;
48423;SDS011;34232;42.502;26.014;2024-03-06T13:32:46;10.32;;;6.35;;
48423;SDS011;34232;42.502;26.014;2024-03-06T13:35:12;11.80;;;6.00;;
48423;SDS011;34232;42.502;26.014;2024-03-06T13:37:41;7.82;;;6.13;;
48423;SDS011;34232;42.502;26.014;2024-03-06T13:40:11;12.98;;;6.68;;
48423;SDS011;34232;42.502;26.014;2024-03-06T13:42:38;7.70;;;5.95;;
48423;SDS011;34232;42.502;26.014;2024-03-06T13:45:05;9.98;;;5.60;;
48423;SDS011;34232;42.502;26.014;2024-03-06T13:47:36;13.05;;;7.05;;
48423;SDS011;34232;42.502;26.014;2024-03-06T13:50:09;10.75;;;5.65;;
48423;SDS011;34232;42.502;26.014;2024-03-06T13:52:38;8.90;;;4.90;;
48423;SDS011;34232;42.502;26.014;2024-03-06T13:55:04;6.00;;;4.78;;
48423;SDS011;34232;42.502;26.014;2024-03-06T13:57:34;7.15;;;4.13;;
48423;SDS011;34232;42.502;26.014;2024-03-06T14:00:01;4.60;;;3.50;;
48423;SDS011;34232;42.502;26.014;2024-03-06T14:02:31;5.50;;;3.75;;
48423;SDS011;34232;42.502;26.014;2024-03-06T14:04:57;4.53;;;3.95;;
48423;SDS011;34232;42.502;26.014;2024-03-06T14:07:22;8.10;;;3.97;;
48423;SDS011;34232;42.502;26.014;2024-03-06T14:09:48;5.53;;;4.47;;
48423;SDS011;34232;42.502;26.014;2024-03-06T14:12:17;8.88;;;4.85;;
48423;SDS011;34232;42.502;26.014;2024-03-06T14:14:43;7.43;;;3.83;;
48423;SDS011;34232;42.502;26.014;2024-03-06T14:17:10;7.95;;;5.45;;
48423;SDS011;34232;42.502;26.014;2024-03-06T14:19:38;16.00;;;4.72;;
48423;SDS011;34232;42.502;26.014;2024-03-06T14:22:09;11.23;;;6.03;;
48423;SDS011;34232;42.502;26.014;2024-03-06T14:24:35;6.77;;;4.37;;
48423;SDS011;34232;42.502;26.014;2024-03-06T14:27:01;9.23;;;3.90;;
48423;SDS011;34232;42.502;26.014;2024-03-06T14:29:27;6.80;;;4.95;;
48423;SDS011;34232;42.502;26.014;2024-03-06T14:31:54;8.40;;;5.30;;